Time;durP1;ratioP1;P1;durP2;ratioP2;P2;SDS_P1;SDS_P2;PMS_P1;PMS_P2;Temp;Humidity;BMP_temperature;BMP_pressure;BME280_temperature;BME280_humidity;BME280_pressure;Samples;Min_cycle;Max_cycle;Signal;HPM_P1;HPM_P2
2023/01/22 00:04:36;;;;;;;23.73;13.63;;;1.60;99.90;;;;;;10351619;28;20263;-67
2023/01/22 00:09:36;;;;;;;26.20;14.17;;;1.60;99.90;;;;;;10350170;28;20258;-68
2023/01/22 00:14:37;;;;;;;21.97;12.03;;;1.70;99.90;;;;;;10362413;28;20580;-67
2023/01/22 00:19:38;;;;;;;21.60;12.57;;;1.70;99.90;;;;;;10336257;28;20223;-67
2023/01/22 00:24:42;;;;;;;22.67;12.00;;;1.70;99.90;;;;;;10349909;28;20666;-67
2023/01/22 00:29:42;;;;;;;21.13;12.50;;;1.60;99.90;;;;;;10348548;28;20224;-66
2023/01/22 00:34:49;;;;;;;23.37;13.00;;;1.60;99.90;;;;;;10350669;28;20224;-67
2023/01/22 00:39:50;;;;;;;19.87;12.57;;;1.60;99.90;;;;;;10361999;28;20225;-66
2023/01/22 00:44:50;;;;;;;20.53;11.23;;;1.60;99.90;;;;;;10340210;28;20832;-66
2023/01/22 00:49:51;;;;;;;18.37;10.57;;;1.50;99.90;;;;;;10347277;28;20235;-67
2023/01/22 00:54:51;;;;;;;12.87;8.93;;;1.50;99.90;;;;;;10359363;28;20215;-67
2023/01/22 00:59:52;;;;;;;11.30;8.17;;;1.60;99.90;;;;;;10356139;28;20225;-68
2023/01/22 01:04:52;;;;;;;13.43;7.87;;;1.70;99.90;;;;;;10356363;28;20233;-67
2023/01/22 01:09:53;;;;;;;11.10;7.53;;;1.70;99.90;;;;;;10357319;28;20272;-67
2023/01/22 01:14:55;;;;;;;12.13;7.67;;;1.80;99.90;;;;;;10359606;28;20221;-73
2023/01/22 01:19:55;;;;;;;9.83;6.83;;;1.80;99.90;;;;;;10355302;28;20210;-67
2023/01/22 01:24:56;;;;;;;11.30;7.70;;;1.80;99.90;;;;;;10356836;28;20221;-69
2023/01/22 01:29:59;;;;;;;11.50;7.13;;;1.80;99.90;;;;;;10357224;28;20699;-67
2023/01/22 01:35:00;;;;;;;11.63;7.53;;;1.80;99.90;;;;;;10360820;28;20226;-67
2023/01/22 01:40:00;;;;;;;11.43;7.80;;;1.80;99.90;;;;;;10354471;28;20247;-68
2023/01/22 01:45:23;;;;;;;11.43;7.53;;;1.90;99.90;;;;;;10360148;28;20803;-67
2023/01/22 01:50:26;;;;;;;10.87;7.43;;;1.90;99.90;;;;;;10351442;28;20311;-69
2023/01/22 01:55:29;;;;;;;11.47;7.50;;;1.90;99.90;;;;;;10346713;28;20577;-67
2023/01/22 02:00:34;;;;;;;10.50;7.20;;;1.90;99.90;;;;;;10355408;28;20731;-68
2023/01/22 02:05:37;;;;;;;9.83;6.70;;;1.90;99.90;;;;;;10357559;28;20230;-69
2023/01/22 02:10:38;;;;;;;9.97;6.90;;;2.00;99.90;;;;;;10338621;28;20274;-68
2023/01/22 02:15:39;;;;;;;8.63;6.37;;;2.00;99.90;;;;;;10358819;28;20755;-70
2023/01/22 02:20:50;;;;;;;9.47;6.60;;;2.00;99.90;;;;;;10358009;28;20300;-72
2023/01/22 02:25:52;;;;;;;8.03;6.17;;;1.90;99.90;;;;;;10360378;28;20291;-72
2023/01/22 02:30:52;;;;;;;9.07;5.93;;;2.00;99.90;;;;;;10354273;28;20743;-71
2023/01/22 02:35:53;;;;;;;9.03;6.63;;;1.90;99.90;;;;;;10362843;28;20283;-69
2023/01/22 02:40:53;;;;;;;8.00;5.80;;;1.90;99.90;;;;;;10347300;28;20225;-71
2023/01/22 02:45:54;;;;;;;8.97;6.40;;;1.90;99.90;;;;;;10354234;28;20225;-71
2023/01/22 02:50:55;;;;;;;8.53;6.23;;;1.90;99.90;;;;;;10347647;28;20220;-69
2023/01/22 02:55:55;;;;;;;11.27;5.97;;;1.90;99.90;;;;;;10360342;28;20217;-70
2023/01/22 03:00:56;;;;;;;7.67;5.67;;;1.90;99.90;;;;;;10345791;28;20594;-71
2023/01/22 03:05:56;;;;;;;7.30;5.47;;;1.90;99.90;;;;;;10357193;28;20764;-70
2023/01/22 03:10:57;;;;;;;6.30;5.20;;;1.90;99.90;;;;;;10351573;28;20737;-73
2023/01/22 03:21:21;;;;;;;6.17;5.00;;;1.90;99.90;;;;;;10351688;28;20221;-73
2023/01/22 03:26:23;;;;;;;6.13;5.00;;;1.90;99.90;;;;;;10336019;28;20595;-72
2023/01/22 03:31:24;;;;;;;7.10;5.10;;;1.90;99.90;;;;;;10356073;28;20295;-72
2023/01/22 03:36:24;;;;;;;6.40;4.83;;;1.90;99.90;;;;;;10347747;28;20283;-71
2023/01/22 03:41:25;;;;;;;6.20;5.10;;;1.90;99.90;;;;;;10357618;28;20283;-71
2023/01/22 03:46:26;;;;;;;6.60;5.03;;;1.90;99.90;;;;;;10346451;28;20229;-71
2023/01/22 03:51:27;;;;;;;6.50;5.00;;;1.90;99.90;;;;;;10355589;28;20263;-70
2023/01/22 03:56:30;;;;;;;5.60;4.47;;;1.90;99.90;;;;;;10351505;28;20224;-71
2023/01/22 04:01:31;;;;;;;5.87;5.00;;;1.90;99.90;;;;;;10344047;28;20696;-71
2023/01/22 04:06:31;;;;;;;7.17;4.90;;;1.90;99.90;;;;;;10352039;28;20226;-72
2023/01/22 04:11:32;;;;;;;4.77;4.27;;;1.90;99.90;;;;;;10352706;28;20213;-71
2023/01/22 04:16:35;;;;;;;7.03;4.67;;;1.90;99.90;;;;;;10335912;28;20218;-72
2023/01/22 04:21:36;;;;;;;5.63;4.60;;;1.90;99.90;;;;;;10332273;28;20213;-69
2023/01/22 04:26:37;;;;;;;4.53;3.60;;;1.90;99.90;;;;;;10347008;28;20233;-69
2023/01/22 04:31:37;;;;;;;6.00;4.23;;;1.90;99.90;;;;;;10347465;28;20228;-70
2023/01/22 04:36:38;;;;;;;4.40;3.70;;;1.90;99.90;;;;;;10348019;28;20224;-69
2023/01/22 04:41:38;;;;;;;5.33;4.30;;;1.90;99.90;;;;;;10356821;28;20247;-70
2023/01/22 04:46:39;;;;;;;4.40;4.00;;;1.90;99.90;;;;;;10349605;28;20316;-71
2023/01/22 04:51:39;;;;;;;4.27;3.80;;;1.90;99.90;;;;;;10354892;28;20223;-70
2023/01/22 04:56:40;;;;;;;5.30;4.00;;;1.90;99.90;;;;;;10349703;28;20407;-70
2023/01/22 05:01:41;;;;;;;4.70;3.90;;;1.90;99.90;;;;;;10350116;28;20256;-70
2023/01/22 05:06:41;;;;;;;4.23;3.80;;;1.90;99.90;;;;;;10340596;28;20630;-70
2023/01/22 05:11:42;;;;;;;4.13;3.63;;;1.90;99.90;;;;;;10345331;28;20312;-70
2023/01/22 05:16:43;;;;;;;4.33;3.83;;;1.90;99.90;;;;;;10342149;28;20229;-70
2023/01/22 05:21:43;;;;;;;4.57;3.83;;;2.00;99.90;;;;;;10354539;28;20317;-70
2023/01/22 05:26:44;;;;;;;4.23;3.60;;;2.00;99.90;;;;;;10354875;28;20240;-69
2023/01/22 05:31:45;;;;;;;4.27;3.50;;;2.00;99.90;;;;;;10353959;28;20218;-70
2023/01/22 05:36:46;;;;;;;5.60;3.80;;;2.00;99.90;;;;;;10351412;28;20225;-69
2023/01/22 05:41:46;;;;;;;4.30;3.70;;;2.00;99.90;;;;;;10352976;28;20217;-71
2023/01/22 05:46:47;;;;;;;4.20;3.60;;;2.00;99.90;;;;;;10354111;28;20643;-70
2023/01/22 05:51:47;;;;;;;4.10;3.70;;;2.00;99.90;;;;;;10355054;28;20251;-70
2023/01/22 05:56:48;;;;;;;3.93;3.27;;;2.10;99.90;;;;;;10338166;28;20622;-70
2023/01/22 06:01:48;;;;;;;4.73;3.20;;;2.10;99.90;;;;;;10354699;28;20221;-70
2023/01/22 06:06:49;;;;;;;5.70;3.60;;;2.10;99.90;;;;;;10355426;28;20226;-70
2023/01/22 06:11:50;;;;;;;3.73;3.40;;;2.10;99.90;;;;;;10354097;28;20279;-70
2023/01/22 06:16:50;;;;;;;4.03;3.60;;;2.10;99.90;;;;;;10350068;28;20226;-71
2023/01/22 06:21:51;;;;;;;3.37;3.07;;;2.10;99.90;;;;;;10353920;28;20226;-70
2023/01/22 06:26:55;;;;;;;3.17;2.87;;;2.10;99.90;;;;;;10346021;28;20243;-70
2023/01/22 06:31:56;;;;;;;3.00;2.80;;;2.10;99.90;;;;;;10347961;28;20218;-70
2023/01/22 06:36:56;;;;;;;3.30;3.00;;;2.20;99.90;;;;;;10354053;28;20232;-70
2023/01/22 06:41:57;;;;;;;8.20;5.50;;;2.20;99.90;;;;;;10352657;28;20232;-70
2023/01/22 06:46:57;;;;;;;3.17;2.87;;;2.20;99.90;;;;;;10345667;28;20240;-70
2023/01/22 06:51:58;;;;;;;6.13;4.23;;;2.20;99.90;;;;;;10353003;28;20659;-70
2023/01/22 06:56:58;;;;;;;13.00;7.67;;;2.20;99.90;;;;;;10343940;28;20226;-70
2023/01/22 07:01:59;;;;;;;5.87;4.07;;;2.20;99.90;;;;;;10353751;28;20222;-70
2023/01/22 07:06:59;;;;;;;4.17;3.67;;;2.20;99.90;;;;;;10351626;28;20239;-70
2023/01/22 07:12:00;;;;;;;4.33;3.40;;;2.20;99.90;;;;;;10344800;28;20230;-70
2023/01/22 07:17:01;;;;;;;3.27;2.93;;;2.20;99.90;;;;;;10358348;28;20217;-69
2023/01/22 07:22:01;;;;;;;5.23;3.63;;;2.20;99.90;;;;;;10343587;28;20704;-70
2023/01/22 07:27:02;;;;;;;3.60;3.30;;;2.20;99.90;;;;;;10351531;28;20718;-70
2023/01/22 07:32:03;;;;;;;3.53;3.23;;;2.30;99.90;;;;;;10349297;28;20225;-70
2023/01/22 07:37:03;;;;;;;4.03;3.63;;;2.30;99.90;;;;;;10347765;28;20652;-70
2023/01/22 07:42:04;;;;;;;3.50;3.17;;;2.30;99.90;;;;;;10332312;28;20244;-70
2023/01/22 07:47:05;;;;;;;4.07;3.40;;;2.30;99.90;;;;;;10353369;28;20227;-69
2023/01/22 07:52:05;;;;;;;4.23;3.30;;;2.30;99.90;;;;;;10350491;28;20217;-70
2023/01/22 07:57:06;;;;;;;4.23;3.53;;;2.30;99.90;;;;;;10342825;28;20291;-70
2023/01/22 08:02:11;;;;;;;4.07;3.67;;;2.30;99.90;;;;;;10357814;28;20261;-70
2023/01/22 08:07:16;;;;;;;3.90;3.50;;;2.30;99.90;;;;;;10351205;28;20271;-70
2023/01/22 08:12:16;;;;;;;4.20;3.80;;;2.30;99.90;;;;;;10345233;28;20221;-70
2023/01/22 08:17:17;;;;;;;4.87;4.30;;;2.40;99.90;;;;;;10349915;28;20212;-70
2023/01/22 08:22:18;;;;;;;3.90;3.60;;;2.40;99.90;;;;;;10349744;28;20213;-71
2023/01/22 08:27:19;;;;;;;4.70;4.13;;;2.40;99.90;;;;;;10336031;28;20685;-70
2023/01/22 08:32:19;;;;;;;4.80;4.00;;;2.40;99.90;;;;;;10347360;28;20300;-71
2023/01/22 08:37:21;;;;;;;4.20;3.80;;;2.50;99.90;;;;;;10336894;28;20300;-70
2023/01/22 08:42:21;;;;;;;4.93;3.90;;;2.50;99.90;;;;;;10347376;28;20259;-70
2023/01/22 08:47:26;;;;;;;4.23;3.50;;;2.50;99.90;;;;;;10345872;28;20220;-71
2023/01/22 08:52:26;;;;;;;4.40;4.00;;;2.50;99.90;;;;;;10352131;28;20684;-71
2023/01/22 08:57:27;;;;;;;4.33;3.60;;;2.70;99.90;;;;;;10354072;28;20226;-71
2023/01/22 09:02:31;;;;;;;3.80;3.37;;;2.80;99.90;;;;;;10354311;28;20290;-71
2023/01/22 09:07:31;;;;;;;3.53;3.23;;;3.00;99.90;;;;;;10335810;28;20572;-71
2023/01/22 09:12:35;;;;;;;3.90;3.50;;;3.20;99.90;;;;;;10354934;28;20316;-70
2023/01/22 09:17:36;;;;;;;3.53;3.23;;;3.30;99.90;;;;;;10358823;28;20681;-70
2023/01/22 09:22:36;;;;;;;3.57;3.00;;;3.30;99.90;;;;;;10357321;28;20277;-71
2023/01/22 09:27:37;;;;;;;3.97;3.30;;;3.30;99.90;;;;;;10354798;28;20224;-71
2023/01/22 09:32:37;;;;;;;4.20;3.57;;;3.30;99.90;;;;;;10353796;28;20692;-71
2023/01/22 09:37:38;;;;;;;4.40;3.83;;;3.30;99.90;;;;;;10361278;28;20255;-71
2023/01/22 09:42:39;;;;;;;4.37;3.50;;;3.20;99.90;;;;;;10350655;28;20430;-71
2023/01/22 09:47:52;;;;;;;4.63;3.27;;;3.30;99.90;;;;;;10358027;28;20247;-70
2023/01/22 09:52:56;;;;;;;3.80;3.40;;;3.30;99.90;;;;;;10346718;28;20256;-70
2023/01/22 09:58:01;;;;;;;4.10;3.70;;;3.50;99.90;;;;;;10347569;28;20295;-70
2023/01/22 10:03:08;;;;;;;5.00;4.20;;;3.60;99.90;;;;;;10354847;28;20249;-71
2023/01/22 10:08:32;;;;;;;3.57;3.27;;;3.60;99.90;;;;;;10347570;28;20829;-71
2023/01/22 10:13:37;;;;;;;4.30;3.90;;;3.70;99.90;;;;;;10350072;28;20225;-71
2023/01/22 10:18:57;;;;;;;4.47;3.40;;;3.70;99.90;;;;;;10347280;28;20238;-71
2023/01/22 10:23:58;;;;;;;4.80;4.00;;;3.80;99.90;;;;;;10351092;28;20224;-70
2023/01/22 10:29:07;;;;;;;3.93;3.63;;;3.70;99.90;;;;;;10345299;28;20213;-70
2023/01/22 10:34:30;;;;;;;4.57;3.70;;;3.70;99.90;;;;;;10348876;28;20237;-71
2023/01/22 10:39:41;;;;;;;4.60;3.90;;;3.90;99.90;;;;;;10349356;28;20752;-70
2023/01/22 10:44:45;;;;;;;3.70;3.40;;;4.00;99.90;;;;;;10360968;28;20772;-70
2023/01/22 10:50:05;;;;;;;3.77;3.43;;;4.10;99.90;;;;;;10337450;28;20215;-70
2023/01/22 10:55:07;;;;;;;3.80;3.40;;;4.20;99.90;;;;;;10352886;28;20225;-69
2023/01/22 11:00:13;;;;;;;3.80;3.50;;;4.40;99.90;;;;;;10343094;28;20624;-70
2023/01/22 11:05:25;;;;;;;4.00;3.60;;;4.30;99.90;;;;;;10346888;28;20714;-71
2023/01/22 11:10:44;;;;;;;6.93;4.00;;;4.40;99.90;;;;;;10339590;28;20221;-70
2023/01/22 11:15:53;;;;;;;4.00;3.60;;;4.30;99.90;;;;;;10351154;28;20236;-70
2023/01/22 11:20:57;;;;;;;4.57;3.50;;;4.40;99.90;;;;;;10353596;28;20216;-70
2023/01/22 11:26:15;;;;;;;3.37;3.07;;;4.40;99.90;;;;;;10345203;28;20226;-70
2023/01/22 11:31:41;;;;;;;4.43;3.80;;;4.40;99.90;;;;;;10340768;28;20613;-69
2023/01/22 11:36:52;;;;;;;4.07;3.47;;;4.50;99.90;;;;;;10343201;28;20249;-71
2023/01/22 11:42:14;;;;;;;4.00;3.50;;;4.50;99.90;;;;;;10347517;28;20227;-70
2023/01/22 11:47:20;;;;;;;4.73;2.90;;;4.60;99.90;;;;;;10349284;28;20656;-70
2023/01/22 11:52:30;;;;;;;3.23;2.93;;;4.70;99.90;;;;;;10344147;28;20240;-71
2023/01/22 11:58:14;;;;;;;4.47;2.77;;;4.50;99.90;;;;;;10352751;28;20222;-71
2023/01/22 12:03:48;;;;;;;2.63;2.43;;;4.40;99.90;;;;;;10339797;28;20230;-71
2023/01/22 12:09:12;;;;;;;3.23;2.93;;;4.40;99.90;;;;;;10350529;28;20218;-71
2023/01/22 12:14:23;;;;;;;3.10;2.90;;;4.40;99.90;;;;;;10327945;28;20731;-71
2023/01/22 12:19:51;;;;;;;2.93;2.70;;;4.60;99.90;;;;;;10345029;28;20925;-71
2023/01/22 12:25:31;;;;;;;2.73;2.50;;;4.70;99.90;;;;;;10350680;28;20239;-70
2023/01/22 12:31:02;;;;;;;3.30;3.00;;;4.70;99.90;;;;;;10349200;28;20220;-70
2023/01/22 12:36:05;;;;;;;2.90;2.67;;;4.70;99.90;;;;;;10355867;28;20217;-71
2023/01/22 12:41:47;;;;;;;3.20;2.90;;;4.60;99.90;;;;;;10358789;28;20305;-70
2023/01/22 12:46:59;;;;;;;2.97;2.77;;;4.60;99.90;;;;;;10351655;28;20236;-70
2023/01/22 12:52:00;;;;;;;3.37;3.07;;;4.50;99.90;;;;;;10350180;28;20230;-71
2023/01/22 12:57:16;;;;;;;5.07;2.83;;;4.50;99.90;;;;;;10348868;28;20365;-71
2023/01/22 13:02:34;;;;;;;2.90;2.70;;;4.50;99.90;;;;;;10357856;28;20312;-71
2023/01/22 13:07:37;;;;;;;3.30;3.00;;;4.50;99.90;;;;;;10345895;28;20244;-71
2023/01/22 13:12:44;;;;;;;4.47;2.83;;;4.50;99.90;;;;;;10352575;28;20225;-71
2023/01/22 13:17:54;;;;;;;3.40;3.10;;;4.60;99.90;;;;;;10349120;28;20256;-71
2023/01/22 13:22:57;;;;;;;3.20;2.90;;;4.60;99.90;;;;;;10347765;28;20225;-71
2023/01/22 13:27:58;;;;;;;3.30;3.00;;;4.60;99.90;;;;;;10349531;28;20271;-70
2023/01/22 13:33:10;;;;;;;3.30;3.07;;;4.50;99.90;;;;;;10347530;28;20629;-71
2023/01/22 13:38:31;;;;;;;4.93;4.00;;;4.50;99.90;;;;;;10352557;28;20672;-71
2023/01/22 13:43:33;;;;;;;4.13;2.83;;;4.40;99.90;;;;;;10358686;28;20236;-71
2023/01/22 13:48:34;;;;;;;3.00;2.70;;;4.40;99.90;;;;;;10353929;28;20647;-71
2023/01/22 13:53:41;;;;;;;3.10;2.80;;;4.30;99.90;;;;;;10355456;28;20459;-70
2023/01/22 13:58:43;;;;;;;3.03;2.77;;;4.30;99.90;;;;;;10356225;28;20277;-71
2023/01/22 14:03:43;;;;;;;2.47;2.27;;;4.20;99.90;;;;;;10349583;28;20229;-71
2023/01/22 14:08:49;;;;;;;3.43;2.97;;;4.20;99.90;;;;;;10346642;28;20748;-71
2023/01/22 14:13:52;;;;;;;3.10;2.80;;;4.30;99.90;;;;;;10353999;28;20966;-71
2023/01/22 14:18:52;;;;;;;4.40;3.27;;;4.30;99.90;;;;;;10357737;28;20369;-71
2023/01/22 14:23:53;;;;;;;3.57;3.23;;;4.30;99.90;;;;;;10359082;28;20222;-70
2023/01/22 14:28:53;;;;;;;3.40;3.10;;;4.30;99.90;;;;;;10334685;28;20212;-70
2023/01/22 14:33:54;;;;;;;3.30;3.00;;;4.20;99.90;;;;;;10353271;28;20229;-72
2023/01/22 14:38:56;;;;;;;3.87;3.40;;;4.20;99.90;;;;;;10346994;28;20260;-70
2023/01/22 14:43:57;;;;;;;7.93;5.20;;;4.20;99.90;;;;;;10346527;28;20280;-70
2023/01/22 14:49:00;;;;;;;3.93;3.30;;;4.30;99.90;;;;;;10354486;28;20249;-70
2023/01/22 14:54:01;;;;;;;5.00;3.97;;;4.20;99.90;;;;;;10346860;28;20238;-71
2023/01/22 14:59:03;;;;;;;5.60;4.07;;;4.20;99.90;;;;;;10336127;28;20776;-70
2023/01/22 15:04:04;;;;;;;3.90;3.50;;;4.10;99.90;;;;;;10345492;28;20677;-70
2023/01/22 15:09:05;;;;;;;3.70;3.40;;;4.10;99.90;;;;;;10352613;28;20318;-71
2023/01/22 15:14:07;;;;;;;4.10;3.70;;;4.00;99.90;;;;;;10347092;28;20238;-71
2023/01/22 15:19:07;;;;;;;5.37;4.27;;;4.00;99.90;;;;;;10351047;28;20218;-71
2023/01/22 15:24:08;;;;;;;4.30;3.90;;;3.90;99.90;;;;;;10345711;28;20261;-71
2023/01/22 15:29:11;;;;;;;5.97;4.47;;;3.90;99.90;;;;;;10352429;28;20245;-71
2023/01/22 15:34:11;;;;;;;4.30;3.90;;;3.90;99.90;;;;;;10339620;28;20220;-71
2023/01/22 15:39:12;;;;;;;4.50;4.00;;;3.80;99.90;;;;;;10344427;28;20256;-70
2023/01/22 15:44:13;;;;;;;4.30;3.40;;;3.80;99.90;;;;;;10350407;28;20312;-71
2023/01/22 15:49:14;;;;;;;5.77;4.27;;;3.80;99.90;;;;;;10339869;28;20213;-71
2023/01/22 15:54:15;;;;;;;5.50;3.87;;;3.70;99.90;;;;;;10346500;28;20588;-72
2023/01/22 15:59:16;;;;;;;5.90;4.63;;;3.70;99.90;;;;;;10356780;28;20217;-71
2023/01/22 16:04:16;;;;;;;5.50;4.53;;;3.60;99.90;;;;;;10345448;28;20233;-70
2023/01/22 16:09:17;;;;;;;5.43;4.53;;;3.60;99.90;;;;;;10348413;28;20684;-71
2023/01/22 16:14:21;;;;;;;4.27;3.87;;;3.60;99.90;;;;;;10348671;28;20851;-72
2023/01/22 16:19:21;;;;;;;4.73;4.27;;;3.50;99.90;;;;;;10347765;28;20229;-71
2023/01/22 16:24:28;;;;;;;4.67;4.00;;;3.50;99.90;;;;;;10335164;28;20226;-70
2023/01/22 16:29:28;;;;;;;4.00;3.70;;;3.50;99.90;;;;;;10352013;28;20210;-71
2023/01/22 16:34:29;;;;;;;5.30;4.50;;;3.50;99.90;;;;;;10341194;28;20213;-71
2023/01/22 16:39:32;;;;;;;4.90;4.20;;;3.50;99.90;;;;;;10346328;28;20233;-71
2023/01/22 16:44:33;;;;;;;4.87;4.20;;;3.50;99.90;;;;;;10337951;28;20356;-71
2023/01/22 16:49:34;;;;;;;4.67;4.20;;;3.50;99.90;;;;;;10345743;28;20340;-71
2023/01/22 16:54:37;;;;;;;5.60;4.30;;;3.40;99.90;;;;;;10348093;28;20703;-71
2023/01/22 16:59:39;;;;;;;4.87;4.37;;;3.40;99.90;;;;;;10344988;28;20220;-71
2023/01/22 17:04:40;;;;;;;4.87;4.37;;;3.40;99.90;;;;;;10339248;28;20229;-71
2023/01/22 17:09:40;;;;;;;6.83;5.37;;;3.30;99.90;;;;;;10344898;28;20695;-71
2023/01/22 17:14:45;;;;;;;6.60;5.60;;;3.40;99.90;;;;;;10351824;28;20223;-71
2023/01/22 17:19:45;;;;;;;5.43;4.57;;;3.30;99.90;;;;;;10351308;28;20256;-71
2023/01/22 17:24:46;;;;;;;6.17;5.10;;;3.30;99.90;;;;;;10356144;28;20239;-70
2023/01/22 17:29:47;;;;;;;6.60;5.50;;;3.30;99.90;;;;;;10347078;28;20227;-71
2023/01/22 17:34:48;;;;;;;6.60;5.53;;;3.30;99.90;;;;;;10349019;28;20706;-71
2023/01/22 17:39:49;;;;;;;7.10;5.40;;;3.30;99.90;;;;;;10356267;28;20226;-70
2023/01/22 17:44:50;;;;;;;5.90;5.30;;;3.30;99.90;;;;;;10357094;28;20218;-71
2023/01/22 17:49:50;;;;;;;6.80;5.90;;;3.30;99.90;;;;;;10352887;28;20245;-71
2023/01/22 17:54:54;;;;;;;7.13;6.07;;;3.30;99.90;;;;;;10354768;28;20647;-71
2023/01/22 17:59:54;;;;;;;6.90;5.63;;;3.30;99.90;;;;;;10330595;28;20224;-70
2023/01/22 18:04:55;;;;;;;7.60;5.97;;;3.30;99.90;;;;;;10355199;28;20226;-70
2023/01/22 18:09:55;;;;;;;7.90;6.53;;;3.20;99.90;;;;;;10355249;28;20219;-71
2023/01/22 18:14:56;;;;;;;9.73;7.50;;;3.20;99.90;;;;;;10354377;28;20642;-71
2023/01/22 18:19:56;;;;;;;9.63;6.60;;;3.20;99.90;;;;;;10354502;28;20245;-70
2023/01/22 18:24:57;;;;;;;8.33;6.57;;;3.20;99.90;;;;;;10360974;28;20225;-71
2023/01/22 18:29:58;;;;;;;8.93;7.40;;;3.20;99.90;;;;;;10350747;28;20215;-71
2023/01/22 18:34:58;;;;;;;8.20;6.73;;;3.20;99.90;;;;;;10354560;28;20225;-70
2023/01/22 18:40:02;;;;;;;7.07;6.10;;;3.20;99.90;;;;;;10354262;28;20222;-70
2023/01/22 18:45:03;;;;;;;8.30;6.63;;;3.20;99.90;;;;;;10346115;28;20242;-70
2023/01/22 18:50:04;;;;;;;6.83;5.87;;;3.20;99.90;;;;;;10353753;28;20221;-70
2023/01/22 18:55:11;;;;;;;7.73;6.30;;;3.20;99.90;;;;;;10346797;28;20855;-70
2023/01/22 19:00:15;;;;;;;7.67;6.57;;;3.20;99.90;;;;;;10351841;28;20676;-72
2023/01/22 19:05:16;;;;;;;7.23;5.90;;;3.20;99.90;;;;;;10345773;28;20227;-70
2023/01/22 19:10:17;;;;;;;7.67;5.80;;;3.20;99.90;;;;;;10344649;28;20195;-71
2023/01/22 19:15:18;;;;;;;8.13;6.43;;;3.10;99.90;;;;;;10337724;28;20709;-72
2023/01/22 19:20:18;;;;;;;8.13;6.60;;;3.10;99.90;;;;;;10334848;28;20258;-72
2023/01/22 19:25:19;;;;;;;8.47;6.50;;;3.10;99.90;;;;;;10349391;28;20266;-71
2023/01/22 19:30:21;;;;;;;7.77;6.63;;;3.10;99.90;;;;;;10351667;28;20190;-71
2023/01/22 19:35:22;;;;;;;7.40;6.60;;;3.10;99.90;;;;;;10348055;28;20665;-70
2023/01/22 19:40:23;;;;;;;8.70;7.27;;;3.10;99.90;;;;;;10348943;28;20739;-70
2023/01/22 19:45:24;;;;;;;8.00;6.60;;;3.10;99.90;;;;;;10351652;28;20241;-70
2023/01/22 19:50:24;;;;;;;11.53;7.70;;;3.10;99.90;;;;;;10350434;28;20307;-70
2023/01/22 19:55:25;;;;;;;7.93;6.60;;;3.00;99.90;;;;;;10347141;28;20230;-70
2023/01/22 20:00:25;;;;;;;8.17;6.83;;;3.00;99.90;;;;;;10347657;28;20695;-71
2023/01/22 20:05:26;;;;;;;9.03;7.47;;;3.00;99.90;;;;;;10347607;28;20557;-70
2023/01/22 20:10:27;;;;;;;7.97;6.47;;;3.00;99.90;;;;;;10350948;28;20774;-70
2023/01/22 20:15:27;;;;;;;9.10;7.40;;;3.00;99.90;;;;;;10359896;28;20630;-70
2023/01/22 20:20:28;;;;;;;9.47;7.37;;;3.00;99.90;;;;;;10345431;28;20228;-70
2023/01/22 20:25:30;;;;;;;9.33;7.00;;;3.10;99.90;;;;;;10346724;28;20688;-71
2023/01/22 20:30:31;;;;;;;9.07;7.37;;;3.00;99.90;;;;;;10342958;28;20240;-71
2023/01/22 20:35:32;;;;;;;7.63;6.83;;;3.00;99.90;;;;;;10352877;28;20709;-70
2023/01/22 20:40:33;;;;;;;9.37;6.87;;;3.00;99.90;;;;;;10344577;28;20230;-70
2023/01/22 20:45:34;;;;;;;9.37;7.70;;;3.10;99.90;;;;;;10342558;28;20226;-70
2023/01/22 20:50:38;;;;;;;9.00;7.50;;;3.00;99.90;;;;;;10355482;28;20243;-70
2023/01/22 20:55:42;;;;;;;8.37;7.50;;;3.00;99.90;;;;;;10358390;28;20664;-70
2023/01/22 21:00:42;;;;;;;9.03;7.43;;;3.00;99.90;;;;;;10352156;28;20220;-70
2023/01/22 21:05:43;;;;;;;9.13;7.10;;;3.00;99.90;;;;;;10355207;28;20602;-71
2023/01/22 21:10:54;;;;;;;8.90;7.30;;;3.00;99.90;;;;;;10340307;28;20225;-70
2023/01/22 21:15:55;;;;;;;9.50;8.00;;;2.90;99.90;;;;;;10349835;28;20302;-70
2023/01/22 21:20:56;;;;;;;10.10;8.47;;;2.90;99.90;;;;;;10356242;28;20244;-70
2023/01/22 21:26:05;;;;;;;10.80;8.13;;;2.90;99.90;;;;;;10356452;28;20221;-70
2023/01/22 21:31:12;;;;;;;11.70;8.17;;;2.90;99.90;;;;;;10355819;28;20586;-70
2023/01/22 21:36:15;;;;;;;12.07;8.63;;;3.00;99.90;;;;;;10334399;28;20239;-71
2023/01/22 21:41:17;;;;;;;10.07;7.67;;;2.90;99.90;;;;;;10344027;28;20608;-70
2023/01/22 21:46:20;;;;;;;9.90;8.17;;;2.90;99.90;;;;;;10354062;28;20232;-70
2023/01/22 21:51:21;;;;;;;10.40;8.43;;;2.90;99.90;;;;;;10351657;28;20217;-71
2023/01/22 21:56:22;;;;;;;10.97;8.30;;;3.00;99.90;;;;;;10352683;28;20226;-71
2023/01/22 22:01:23;;;;;;;10.83;8.10;;;3.00;99.90;;;;;;10350217;28;20220;-71
2023/01/22 22:06:27;;;;;;;10.10;8.03;;;3.00;99.90;;;;;;10356014;28;20251;-71
2023/01/22 22:11:28;;;;;;;9.53;7.80;;;3.00;99.90;;;;;;10351185;28;20651;-71
2023/01/22 22:16:29;;;;;;;9.40;7.47;;;3.00;99.90;;;;;;10350862;28;20237;-70
2023/01/22 22:21:29;;;;;;;9.53;7.77;;;2.90;99.90;;;;;;10357872;28;20214;-71
2023/01/22 22:26:30;;;;;;;9.33;7.53;;;2.90;99.90;;;;;;10347068;28;20325;-70
2023/01/22 22:31:35;;;;;;;11.20;7.70;;;2.80;99.90;;;;;;10341797;28;20223;-71
2023/01/22 22:36:36;;;;;;;9.37;7.30;;;2.90;99.90;;;;;;10350327;28;20220;-70
2023/01/22 22:41:37;;;;;;;9.23;7.60;;;2.80;99.90;;;;;;10351475;28;20317;-71
2023/01/22 22:46:38;;;;;;;9.17;7.10;;;2.80;99.90;;;;;;10344770;28;20237;-70
2023/01/22 22:51:41;;;;;;;10.17;7.73;;;2.90;99.90;;;;;;10356157;28;20229;-70
2023/01/22 22:56:52;;;;;;;8.97;7.37;;;2.80;99.90;;;;;;10345578;28;20222;-71
2023/01/22 23:01:52;;;;;;;9.83;7.73;;;2.80;99.90;;;;;;10351647;28;20761;-71
2023/01/22 23:06:53;;;;;;;9.53;7.00;;;2.80;99.90;;;;;;10344785;28;20236;-70
2023/01/22 23:11:54;;;;;;;9.50;7.23;;;2.80;99.90;;;;;;10344929;28;20585;-70
2023/01/22 23:16:56;;;;;;;9.50;7.50;;;2.70;99.90;;;;;;10350712;28;20218;-70
2023/01/22 23:21:58;;;;;;;10.30;7.70;;;2.70;99.90;;;;;;10352503;28;20707;-71
2023/01/22 23:26:59;;;;;;;10.33;6.97;;;2.70;99.90;;;;;;10343804;28;20329;-70
2023/01/22 23:31:59;;;;;;;10.23;8.07;;;2.70;99.90;;;;;;10352172;28;20274;-71
2023/01/22 23:37:00;;;;;;;11.00;8.23;;;2.70;99.90;;;;;;10354618;28;20214;-70
2023/01/22 23:42:00;;;;;;;10.43;7.50;;;2.70;99.90;;;;;;10333346;28;20234;-71
2023/01/22 23:47:01;;;;;;;10.47;8.03;;;2.70;99.90;;;;;;10344283;28;20357;-71
2023/01/22 23:52:02;;;;;;;11.03;7.83;;;2.60;99.90;;;;;;10334407;28;20218;-70
2023/01/22 23:57:02;;;;;;;9.90;7.77;;;2.60;99.90;;;;;;10351296;28;20225;-71
